Airport details for: LQBK (Bosnia-Herzegovina)

Metar

LQBK 180330Z 18002KT 3000 1200N R17/0800D BCFG FEW001 09/09 Q1020 NOSIG

General details

ICAO: LQBK
IATA: BNX
Name (city): Banja Luka
Major:
Country: Bosnia-Herzegovina
vACC: vACC Bosnia & Herzegovina
Description:

Banja Luka International Airport, also known as Mahovljani Airport, after the nearby village of the same name, is an airport located 18 km (11 mi) north northeast of the railway station[1] in the city of Banja Luka, the second largest city in Bosnia and Herzegovina and the capital of Republika Srpska entity. In 2011, Banja Luka airport handled 8,367 passengers, a rise of 74% compared to 2010. The airport is managed by the government-owned company "Aerodromi Republike Srpske".

Scenery links:
FS9 scenery: Download
FSX/P3D scenery: Download
XP scenery: Download
Elevation: 401 ft.
Transition altitude: 9500 ft.
MSA: 8200 ft.
Latitude: 44.941397
Longitude: 17.297475
LQBK Charts
LQBK Notams
LQBK Online stations

Runways

Number Course Length Elevation Lat Lon ILS ILS freq ILS FAC GP
17 168° 8202ft / 2500 m 376ft 44.952409 17.294606 108.7 168° 3.0°
35 348° 8202ft / 2500 m 401ft 44.930386 17.300345 - - 3.0°